Eko 2 — SY9957 — position and weather

sailwx.info

Track history (hours):
 
Tides and Currents Weather Stations Pressure Air Temp Water Temp Dewpoint Dewpoint Depression Visibility Wind Speed Wind Dir Waves Ship Positions

Eko 2

Last reported at 2014-Oct-23 11:33 UTC. Time now 2014-Oct-23 12:21 UTC.
Position N 37°06' E 025°22'.

Length 89 m; draft 4.3 m.

Type: Ship (hazmat cat A). MMSI: 240827000.

Date/timePositionNaut miles runAvg speedWind from/ knotsBaromVisibWave heightAir tempDewpointWater temp
2014-Oct-23 11:33N 37°06' E 025°22'0 0.4
2014-Oct-23 10:33N 37°06' E 025°22'0 0.2
2014-Oct-23 09:33N 37°06' E 025°22'2 2.1
2014-Oct-23 08:33N 37°06' E 025°19'1111.4
2014-Oct-23 07:33N 36°54' E 025°15'1111.5
2014-Oct-23 06:33N 36°43' E 025°14'1111.2
2014-Oct-23 05:34N 36°33' E 025°18'1110.9
2014-Oct-23 04:33N 36°23' E 025°26'0 0.1
2014-Oct-23 03:27N 36°23' E 025°26'0 0.0
2014-Oct-23 02:33N 36°23' E 025°26'0 0.0
2014-Oct-23 01:33N 36°23' E 025°26'0 0.0
2014-Oct-23 00:31N 36°23' E 025°26'0 0.0
2014-Oct-22 23:33N 36°23' E 025°26'0 0.0
2014-Oct-22 22:33N 36°23' E 025°26'0 0.0
2014-Oct-22 21:33N 36°23' E 025°26'0 0.0
2014-Oct-22 20:28N 36°23' E 025°26'0 0.0
2014-Oct-22 19:31N 36°23' E 025°26'0 0.0
2014-Oct-22 18:30N 36°23' E 025°26'0 0.0
2014-Oct-22 17:34N 36°23' E 025°26'0 0.0
2014-Oct-22 16:30N 36°23' E 025°26'0 0.0
2014-Oct-22 15:33N 36°23' E 025°26'0 0.0
2014-Oct-22 14:33N 36°23' E 025°26'0 0.0
2014-Oct-22 13:33N 36°23' E 025°26'0 0.0
2014-Oct-22 12:33N 36°23' E 025°26'0 0.0
2014-Oct-22 11:33N 36°23' E 025°26'0 0.0
2014-Oct-22 10:32N 36°23' E 025°26'7 7.4
2014-Oct-22 09:33N 36°29' E 025°21'32 9.6
2014-Oct-22 06:16N 36°49' E 024°50'810.6
2014-Oct-22 05:34N 36°51' E 024°41'10 9.7
2014-Oct-22 04:31N 36°50' E 024°28'7 0.5
2014-Oct-21 14:33N 36°42' E 024°27'8 7.7
2014-Oct-21 13:33N 36°50' E 024°29'13 2.7
2014-Oct-21 08:33N 36°59' E 024°40'7 6.9
2014-Oct-21 07:34N 37°04' E 024°34'5 5.0
2014-Oct-21 06:34N 37°08' E 024°31'0 0.0
2014-Oct-21 05:28N 37°08' E 024°31'0 0.0
2014-Oct-21 04:34N 37°08' E 024°31'4 4.0
2014-Oct-21 03:34N 37°05' E 024°29'9 9.1
2014-Oct-21 02:31N 37°10' E 024°20'1010.6
2014-Oct-21 01:33N 37°20' E 024°15'1110.9
2014-Oct-21 00:33N 37°31' E 024°12'19 1.7
2014-Oct-20 13:19N 37°38' E 023°51'8 9.9
2014-Oct-20 12:33N 37°41' E 023°42'1110.9
2014-Oct-20 11:33N 37°51' E 023°37'9 9.2
2014-Oct-20 10:33N 38°00' E 023°33'2 1.6
2014-Oct-20 09:27N 38°02' E 023°32'0 0.0
2014-Oct-20 08:33N 38°02' E 023°32'0 0.0
2014-Oct-20 07:27N 38°02' E 023°32'0 0.0
2014-Oct-20 06:33N 38°02' E 023°32'0 0.2
2014-Oct-20 05:24N 38°02' E 023°32'0 0.0
2014-Oct-20 04:27N 38°02' E 023°32'0 0.0
2014-Oct-20 03:27N 38°02' E 023°32'0 0.0
2014-Oct-20 02:33N 38°02' E 023°32'0 0.0
2014-Oct-20 01:33N 38°02' E 023°32'0 0.0
2014-Oct-20 00:30N 38°02' E 023°32'0 0.0
2014-Oct-19 23:33N 38°02' E 023°32'0 0.0
2014-Oct-19 22:30N 38°02' E 023°32'0 0.0
2014-Oct-19 21:33N 38°02' E 023°32'0 0.0
2014-Oct-19 20:33N 38°02' E 023°32'0 0.0
2014-Oct-19 19:33N 38°02' E 023°32'0 0.0
2014-Oct-19 18:33N 38°02' E 023°32'0 0.0
2014-Oct-19 17:33N 38°02' E 023°32'0 0.0
2014-Oct-19 16:33N 38°02' E 023°32'0 0.0
2014-Oct-19 15:33N 38°02' E 023°32'0 0.0
2014-Oct-19 14:33N 38°02' E 023°32'0 0.0
2014-Oct-19 13:33N 38°02' E 023°32'0 0.0
2014-Oct-19 12:33N 38°02' E 023°32'0 0.0
2014-Oct-19 11:33N 38°02' E 023°32'0 0.0
2014-Oct-19 10:33N 38°02' E 023°32'0 0.0
2014-Oct-19 09:33N 38°02' E 023°32'0 0.0
2014-Oct-19 08:33N 38°02' E 023°32'0 0.0
2014-Oct-19 07:33N 38°02' E 023°32'0 0.0
2014-Oct-19 06:33N 38°02' E 023°32'0 0.0
2014-Oct-19 05:33N 38°02' E 023°32'0 0.0
2014-Oct-19 04:33N 38°02' E 023°32'0 0.0
2014-Oct-19 03:33N 38°02' E 023°32'0 0.0
2014-Oct-19 02:33N 38°02' E 023°32'0 0.0
2014-Oct-19 01:33N 38°02' E 023°32'0 0.0
2014-Oct-19 00:33N 38°02' E 023°32'0 0.0
2014-Oct-18 23:33N 38°02' E 023°32'0 0.0
2014-Oct-18 22:33N 38°02' E 023°32'0 0.0
2014-Oct-18 21:33N 38°02' E 023°32'0 0.0
2014-Oct-18 20:33N 38°02' E 023°32'0 0.0
2014-Oct-18 19:33N 38°02' E 023°32'0 0.0
2014-Oct-18 18:33N 38°02' E 023°32'0 0.0
2014-Oct-18 17:33N 38°02' E 023°32'0 0.0
2014-Oct-18 16:33N 38°02' E 023°32'0 0.0
2014-Oct-18 15:33N 38°02' E 023°32'0 0.0
2014-Oct-18 14:33N 38°02' E 023°32'0 0.2
2014-Oct-18 13:34N 38°02' E 023°33'2 0.2
2014-Oct-18 06:33N 38°02' E 023°35'6 5.7
2014-Oct-18 05:33N 37°56' E 023°36'9 9.1
2014-Oct-18 04:33N 37°48' E 023°41'9 8.6
2014-Oct-18 03:32N 37°40' E 023°46'19 8.1
2014-Oct-18 01:13N 37°36' E 024°09'15 8.3
2014-Oct-17 23:25N 37°45' E 024°24'10 9.3
2014-Oct-17 22:21N 37°47' E 024°37'25 1.5
2014-Oct-17 05:26N 37°28' E 024°58'3 2.9
2014-Oct-17 04:27N 37°26' E 024°56'0 0.0
2014-Oct-17 03:27N 37°26' E 024°56'0 0.0
2014-Oct-17 02:27N 37°26' E 024°56'0 0.0
2014-Oct-17 01:33N 37°26' E 024°56'0 0.0
2014-Oct-17 00:33N 37°26' E 024°56'0 0.0
2014-Oct-16 23:33N 37°26' E 024°56'0 0.0
2014-Oct-16 22:33N 37°26' E 024°56'0 0.0
2014-Oct-16 21:21N 37°26' E 024°56'0 0.0
2014-Oct-16 20:33N 37°26' E 024°56'0 0.0
2014-Oct-16 19:27N 37°26' E 024°56'0 0.0
2014-Oct-16 18:33N 37°26' E 024°56'0 0.0
2014-Oct-16 17:30N 37°26' E 024°56'0 0.0
2014-Oct-16 16:27N 37°26' E 024°56'0 0.0
2014-Oct-16 15:24N 37°26' E 024°56'0 0.0
2014-Oct-16 14:33N 37°26' E 024°56'0 0.0
2014-Oct-16 13:33N 37°26' E 024°56'0 0.0
2014-Oct-16 12:33N 37°26' E 024°56'0 0.0
2014-Oct-16 11:06N 37°26' E 024°56'1 0.9
2014-Oct-16 10:27N 37°26' E 024°57'910.0
2014-Oct-16 09:33N 37°22' E 025°07'1110.9
2014-Oct-16 08:33N 37°18' E 025°20'1110.8
2014-Oct-16 07:33N 37°15' E 025°33'1010.4
2014-Oct-16 06:33N 37°11' E 025°45'1010.2
2014-Oct-16 05:33N 37°07' E 025°57'10 9.6
2014-Oct-16 04:33N 37°01' E 026°06'10 9.7
2014-Oct-16 03:33N 36°55' E 026°15'1010.1
2014-Oct-16 02:33N 36°48' E 026°24'1010.5
2014-Oct-16 01:33N 36°41' E 026°34'1110.9
2014-Oct-16 00:33N 36°33' E 026°44'1110.6
2014-Oct-15 23:33N 36°27' E 026°55'1110.3
2014-Oct-15 22:31N 36°23' E 027°07'56 1.5
2014-Oct-14 08:31N 37°00' E 026°14'1111.3
2014-Oct-14 07:33N 36°58' E 026°01'1010.3
2014-Oct-14 06:33N 36°52' E 025°50'2 0.2
2014-Oct-13 17:26N 36°50' E 025°51'6 7.1
2014-Oct-13 16:33N 36°49' E 025°43'1110.7
2014-Oct-13 15:33N 36°41' E 025°34'1110.7
2014-Oct-13 14:33N 36°33' E 025°26'9 8.5
2014-Oct-13 13:34N 36°24' E 025°25'1 1.2
2014-Oct-13 12:32N 36°23' E 025°26'  
Track history (hours):
 
Tides and Currents Weather Stations Pressure Air Temp Water Temp Dewpoint Dewpoint Depression Visibility Wind Speed Wind Dir Waves Ship Positions

Eko 2

Last reported at 2014-Oct-23 11:33 UTC. Time now 2014-Oct-23 12:21 UTC.
Position N 37°06' E 025°22'.

Length 89 m; draft 4.3 m.

Type: Ship (hazmat cat A). MMSI: 240827000.

Date/timePositionNaut miles runAvg speedWind from/ knotsBaromVisibWave heightAir tempDewpointWater temp
2014-Oct-23 11:33N 37°06' E 025°22'0 0.4
2014-Oct-23 10:33N 37°06' E 025°22'0 0.2
2014-Oct-23 09:33N 37°06' E 025°22'2 2.1
2014-Oct-23 08:33N 37°06' E 025°19'1111.4
2014-Oct-23 07:33N 36°54' E 025°15'1111.5
2014-Oct-23 06:33N 36°43' E 025°14'1111.2
2014-Oct-23 05:34N 36°33' E 025°18'1110.9
2014-Oct-23 04:33N 36°23' E 025°26'0 0.1
2014-Oct-23 03:27N 36°23' E 025°26'0 0.0
2014-Oct-23 02:33N 36°23' E 025°26'0 0.0
2014-Oct-23 01:33N 36°23' E 025°26'0 0.0
2014-Oct-23 00:31N 36°23' E 025°26'0 0.0
2014-Oct-22 23:33N 36°23' E 025°26'0 0.0
2014-Oct-22 22:33N 36°23' E 025°26'0 0.0
2014-Oct-22 21:33N 36°23' E 025°26'0 0.0
2014-Oct-22 20:28N 36°23' E 025°26'0 0.0
2014-Oct-22 19:31N 36°23' E 025°26'0 0.0
2014-Oct-22 18:30N 36°23' E 025°26'0 0.0
2014-Oct-22 17:34N 36°23' E 025°26'0 0.0
2014-Oct-22 16:30N 36°23' E 025°26'0 0.0
2014-Oct-22 15:33N 36°23' E 025°26'0 0.0
2014-Oct-22 14:33N 36°23' E 025°26'0 0.0
2014-Oct-22 13:33N 36°23' E 025°26'0 0.0
2014-Oct-22 12:33N 36°23' E 025°26'0 0.0
2014-Oct-22 11:33N 36°23' E 025°26'0 0.0
2014-Oct-22 10:32N 36°23' E 025°26'7 7.4
2014-Oct-22 09:33N 36°29' E 025°21'32 9.6
2014-Oct-22 06:16N 36°49' E 024°50'810.6
2014-Oct-22 05:34N 36°51' E 024°41'10 9.7
2014-Oct-22 04:31N 36°50' E 024°28'7 0.5
2014-Oct-21 14:33N 36°42' E 024°27'8 7.7
2014-Oct-21 13:33N 36°50' E 024°29'13 2.7
2014-Oct-21 08:33N 36°59' E 024°40'7 6.9
2014-Oct-21 07:34N 37°04' E 024°34'5 5.0
2014-Oct-21 06:34N 37°08' E 024°31'0 0.0
2014-Oct-21 05:28N 37°08' E 024°31'0 0.0
2014-Oct-21 04:34N 37°08' E 024°31'4 4.0
2014-Oct-21 03:34N 37°05' E 024°29'9 9.1
2014-Oct-21 02:31N 37°10' E 024°20'1010.6
2014-Oct-21 01:33N 37°20' E 024°15'1110.9
2014-Oct-21 00:33N 37°31' E 024°12'19 1.7
2014-Oct-20 13:19N 37°38' E 023°51'8 9.9
2014-Oct-20 12:33N 37°41' E 023°42'1110.9
2014-Oct-20 11:33N 37°51' E 023°37'9 9.2
2014-Oct-20 10:33N 38°00' E 023°33'2 1.6
2014-Oct-20 09:27N 38°02' E 023°32'0 0.0
2014-Oct-20 08:33N 38°02' E 023°32'0 0.0
2014-Oct-20 07:27N 38°02' E 023°32'0 0.0
2014-Oct-20 06:33N 38°02' E 023°32'0 0.2
2014-Oct-20 05:24N 38°02' E 023°32'0 0.0
2014-Oct-20 04:27N 38°02' E 023°32'0 0.0
2014-Oct-20 03:27N 38°02' E 023°32'0 0.0
2014-Oct-20 02:33N 38°02' E 023°32'0 0.0
2014-Oct-20 01:33N 38°02' E 023°32'0 0.0
2014-Oct-20 00:30N 38°02' E 023°32'0 0.0
2014-Oct-19 23:33N 38°02' E 023°32'0 0.0
2014-Oct-19 22:30N 38°02' E 023°32'0 0.0
2014-Oct-19 21:33N 38°02' E 023°32'0 0.0
2014-Oct-19 20:33N 38°02' E 023°32'0 0.0
2014-Oct-19 19:33N 38°02' E 023°32'0 0.0
2014-Oct-19 18:33N 38°02' E 023°32'0 0.0
2014-Oct-19 17:33N 38°02' E 023°32'0 0.0
2014-Oct-19 16:33N 38°02' E 023°32'0 0.0
2014-Oct-19 15:33N 38°02' E 023°32'0 0.0
2014-Oct-19 14:33N 38°02' E 023°32'0 0.0
2014-Oct-19 13:33N 38°02' E 023°32'0 0.0
2014-Oct-19 12:33N 38°02' E 023°32'0 0.0
2014-Oct-19 11:33N 38°02' E 023°32'0 0.0
2014-Oct-19 10:33N 38°02' E 023°32'0 0.0
2014-Oct-19 09:33N 38°02' E 023°32'0 0.0
2014-Oct-19 08:33N 38°02' E 023°32'0 0.0
2014-Oct-19 07:33N 38°02' E 023°32'0 0.0
2014-Oct-19 06:33N 38°02' E 023°32'0 0.0
2014-Oct-19 05:33N 38°02' E 023°32'0 0.0
2014-Oct-19 04:33N 38°02' E 023°32'0 0.0
2014-Oct-19 03:33N 38°02' E 023°32'0 0.0
2014-Oct-19 02:33N 38°02' E 023°32'0 0.0
2014-Oct-19 01:33N 38°02' E 023°32'0 0.0
2014-Oct-19 00:33N 38°02' E 023°32'0 0.0
2014-Oct-18 23:33N 38°02' E 023°32'0 0.0
2014-Oct-18 22:33N 38°02' E 023°32'0 0.0
2014-Oct-18 21:33N 38°02' E 023°32'0 0.0
2014-Oct-18 20:33N 38°02' E 023°32'0 0.0
2014-Oct-18 19:33N 38°02' E 023°32'0 0.0
2014-Oct-18 18:33N 38°02' E 023°32'0 0.0
2014-Oct-18 17:33N 38°02' E 023°32'0 0.0
2014-Oct-18 16:33N 38°02' E 023°32'0 0.0
2014-Oct-18 15:33N 38°02' E 023°32'0 0.0
2014-Oct-18 14:33N 38°02' E 023°32'0 0.2
2014-Oct-18 13:34N 38°02' E 023°33'2 0.2
2014-Oct-18 06:33N 38°02' E 023°35'6 5.7
2014-Oct-18 05:33N 37°56' E 023°36'9 9.1
2014-Oct-18 04:33N 37°48' E 023°41'9 8.6
2014-Oct-18 03:32N 37°40' E 023°46'19 8.1
2014-Oct-18 01:13N 37°36' E 024°09'15 8.3
2014-Oct-17 23:25N 37°45' E 024°24'10 9.3
2014-Oct-17 22:21N 37°47' E 024°37'25 1.5
2014-Oct-17 05:26N 37°28' E 024°58'3 2.9
2014-Oct-17 04:27N 37°26' E 024°56'0 0.0
2014-Oct-17 03:27N 37°26' E 024°56'0 0.0
2014-Oct-17 02:27N 37°26' E 024°56'0 0.0
2014-Oct-17 01:33N 37°26' E 024°56'0 0.0
2014-Oct-17 00:33N 37°26' E 024°56'0 0.0
2014-Oct-16 23:33N 37°26' E 024°56'0 0.0
2014-Oct-16 22:33N 37°26' E 024°56'0 0.0
2014-Oct-16 21:21N 37°26' E 024°56'0 0.0
2014-Oct-16 20:33N 37°26' E 024°56'0 0.0
2014-Oct-16 19:27N 37°26' E 024°56'0 0.0
2014-Oct-16 18:33N 37°26' E 024°56'0 0.0
2014-Oct-16 17:30N 37°26' E 024°56'0 0.0
2014-Oct-16 16:27N 37°26' E 024°56'0 0.0
2014-Oct-16 15:24N 37°26' E 024°56'0 0.0
2014-Oct-16 14:33N 37°26' E 024°56'0 0.0
2014-Oct-16 13:33N 37°26' E 024°56'0 0.0
2014-Oct-16 12:33N 37°26' E 024°56'0 0.0
2014-Oct-16 11:06N 37°26' E 024°56'1 0.9
2014-Oct-16 10:27N 37°26' E 024°57'910.0
2014-Oct-16 09:33N 37°22' E 025°07'1110.9
2014-Oct-16 08:33N 37°18' E 025°20'1110.8
2014-Oct-16 07:33N 37°15' E 025°33'1010.4
2014-Oct-16 06:33N 37°11' E 025°45'1010.2
2014-Oct-16 05:33N 37°07' E 025°57'10 9.6
2014-Oct-16 04:33N 37°01' E 026°06'10 9.7
2014-Oct-16 03:33N 36°55' E 026°15'1010.1
2014-Oct-16 02:33N 36°48' E 026°24'1010.5
2014-Oct-16 01:33N 36°41' E 026°34'1110.9
2014-Oct-16 00:33N 36°33' E 026°44'1110.6
2014-Oct-15 23:33N 36°27' E 026°55'1110.3
2014-Oct-15 22:31N 36°23' E 027°07'56 1.5
2014-Oct-14 08:31N 37°00' E 026°14'1111.3
2014-Oct-14 07:33N 36°58' E 026°01'1010.3
2014-Oct-14 06:33N 36°52' E 025°50'2 0.2
2014-Oct-13 17:26N 36°50' E 025°51'6 7.1
2014-Oct-13 16:33N 36°49' E 025°43'1110.7
2014-Oct-13 15:33N 36°41' E 025°34'1110.7
2014-Oct-13 14:33N 36°33' E 025°26'9 8.5
2014-Oct-13 13:34N 36°24' E 025°25'1 1.2
2014-Oct-13 12:32N 36°23' E 025°26'  

Dump ship's entire track history